sensor_id;sensor_type;location;lat;lon;timestamp;temperature;humidity
55988;DHT22;75964;50.930;4.514;2024-02-23T00:00:31;6.40;90.60
55988;DHT22;75964;50.930;4.514;2024-02-23T00:02:57;6.40;90.50
55988;DHT22;75964;50.930;4.514;2024-02-23T00:05:24;6.50;90.60
55988;DHT22;75964;50.930;4.514;2024-02-23T00:07:49;6.50;90.70
55988;DHT22;75964;50.930;4.514;2024-02-23T00:10:15;6.30;91.00
55988;DHT22;75964;50.930;4.514;2024-02-23T00:12:41;6.30;91.00
55988;DHT22;75964;50.930;4.514;2024-02-23T00:15:09;6.40;91.00
55988;DHT22;75964;50.930;4.514;2024-02-23T00:17:35;6.30;91.20
55988;DHT22;75964;50.930;4.514;2024-02-23T00:20:00;6.30;91.20
55988;DHT22;75964;50.930;4.514;2024-02-23T00:22:26;6.30;91.20
55988;DHT22;75964;50.930;4.514;2024-02-23T00:24:52;6.30;91.50
55988;DHT22;75964;50.930;4.514;2024-02-23T00:27:17;6.30;91.40
55988;DHT22;75964;50.930;4.514;2024-02-23T00:29:43;6.40;90.70
55988;DHT22;75964;50.930;4.514;2024-02-23T00:32:09;6.50;90.70
55988;DHT22;75964;50.930;4.514;2024-02-23T00:34:35;6.40;90.50
55988;DHT22;75964;50.930;4.514;2024-02-23T00:37:01;6.30;90.20
55988;DHT22;75964;50.930;4.514;2024-02-23T00:39:27;6.30;90.40
55988;DHT22;75964;50.930;4.514;2024-02-23T00:41:53;6.30;90.30
55988;DHT22;75964;50.930;4.514;2024-02-23T00:44:18;6.20;90.30
55988;DHT22;75964;50.930;4.514;2024-02-23T00:46:44;6.30;90.40
55988;DHT22;75964;50.930;4.514;2024-02-23T00:49:10;6.10;90.30
55988;DHT22;75964;50.930;4.514;2024-02-23T00:51:35;6.10;90.30
55988;DHT22;75964;50.930;4.514;2024-02-23T00:54:01;6.10;90.30
55988;DHT22;75964;50.930;4.514;2024-02-23T00:56:27;6.10;90.40
55988;DHT22;75964;50.930;4.514;2024-02-23T00:58:53;6.10;90.40
55988;DHT22;75964;50.930;4.514;2024-02-23T01:01:18;6.20;90.40
55988;DHT22;75964;50.930;4.514;2024-02-23T01:03:44;6.10;90.70
55988;DHT22;75964;50.930;4.514;2024-02-23T01:06:09;6.10;90.70
55988;DHT22;75964;50.930;4.514;2024-02-23T01:08:35;5.90;91.20
55988;DHT22;75964;50.930;4.514;2024-02-23T01:11:01;5.80;91.40
55988;DHT22;75964;50.930;4.514;2024-02-23T01:13:27;6.00;91.30
55988;DHT22;75964;50.930;4.514;2024-02-23T01:15:52;6.00;91.70
55988;DHT22;75964;50.930;4.514;2024-02-23T01:18:19;5.80;91.80
55988;DHT22;75964;50.930;4.514;2024-02-23T01:20:45;5.80;91.80
55988;DHT22;75964;50.930;4.514;2024-02-23T01:23:11;5.80;92.00
55988;DHT22;75964;50.930;4.514;2024-02-23T01:25:36;5.80;91.90
55988;DHT22;75964;50.930;4.514;2024-02-23T01:28:03;5.80;92.20
55988;DHT22;75964;50.930;4.514;2024-02-23T01:30:28;5.80;91.90
55988;DHT22;75964;50.930;4.514;2024-02-23T01:32:54;5.90;91.70
55988;DHT22;75964;50.930;4.514;2024-02-23T01:35:20;5.90;91.70
55988;DHT22;75964;50.930;4.514;2024-02-23T01:37:45;6.00;91.70
55988;DHT22;75964;50.930;4.514;2024-02-23T01:40:11;5.90;91.50
55988;DHT22;75964;50.930;4.514;2024-02-23T01:42:38;5.90;91.60
55988;DHT22;75964;50.930;4.514;2024-02-23T01:45:04;5.90;91.50
55988;DHT22;75964;50.930;4.514;2024-02-23T01:47:30;5.80;91.60
55988;DHT22;75964;50.930;4.514;2024-02-23T01:49:57;5.70;91.80
55988;DHT22;75964;50.930;4.514;2024-02-23T01:52:24;5.90;91.50
55988;DHT22;75964;50.930;4.514;2024-02-23T01:54:50;5.80;91.40
55988;DHT22;75964;50.930;4.514;2024-02-23T01:57:17;5.80;91.60
55988;DHT22;75964;50.930;4.514;2024-02-23T01:59:42;5.80;91.60
55988;DHT22;75964;50.930;4.514;2024-02-23T02:02:08;5.80;91.60
55988;DHT22;75964;50.930;4.514;2024-02-23T02:04:34;5.80;91.40
55988;DHT22;75964;50.930;4.514;2024-02-23T02:07:01;5.80;91.40
55988;DHT22;75964;50.930;4.514;2024-02-23T02:09:26;5.80;91.60
55988;DHT22;75964;50.930;4.514;2024-02-23T02:11:52;5.90;91.50
55988;DHT22;75964;50.930;4.514;2024-02-23T02:14:18;6.00;91.40
55988;DHT22;75964;50.930;4.514;2024-02-23T02:16:44;5.90;91.60
55988;DHT22;75964;50.930;4.514;2024-02-23T02:19:13;5.90;92.00
55988;DHT22;75964;50.930;4.514;2024-02-23T02:21:41;5.80;92.80
55988;DHT22;75964;50.930;4.514;2024-02-23T02:24:06;5.70;93.10
55988;DHT22;75964;50.930;4.514;2024-02-23T02:26:32;5.70;92.90
55988;DHT22;75964;50.930;4.514;2024-02-23T02:28:58;5.70;92.80
55988;DHT22;75964;50.930;4.514;2024-02-23T02:31:24;5.70;92.90
55988;DHT22;75964;50.930;4.514;2024-02-23T02:33:50;5.80;92.80
55988;DHT22;75964;50.930;4.514;2024-02-23T02:36:16;5.80;92.40
55988;DHT22;75964;50.930;4.514;2024-02-23T02:38:41;5.70;92.30
55988;DHT22;75964;50.930;4.514;2024-02-23T02:41:08;5.80;92.30
55988;DHT22;75964;50.930;4.514;2024-02-23T02:43:33;5.80;92.10
55988;DHT22;75964;50.930;4.514;2024-02-23T02:45:59;5.90;91.90
55988;DHT22;75964;50.930;4.514;2024-02-23T02:48:25;6.00;92.10
55988;DHT22;75964;50.930;4.514;2024-02-23T02:50:51;5.90;92.00
55988;DHT22;75964;50.930;4.514;2024-02-23T02:53:17;5.90;91.60
55988;DHT22;75964;50.930;4.514;2024-02-23T02:55:44;6.00;91.70
55988;DHT22;75964;50.930;4.514;2024-02-23T02:58:11;6.10;91.50
55988;DHT22;75964;50.930;4.514;2024-02-23T03:00:38;6.10;91.30
55988;DHT22;75964;50.930;4.514;2024-02-23T03:03:03;6.00;91.30
55988;DHT22;75964;50.930;4.514;2024-02-23T03:05:29;6.10;91.30
55988;DHT22;75964;50.930;4.514;2024-02-23T03:07:55;6.00;91.20
55988;DHT22;75964;50.930;4.514;2024-02-23T03:10:21;6.10;91.40
55988;DHT22;75964;50.930;4.514;2024-02-23T03:12:47;6.20;91.10
55988;DHT22;75964;50.930;4.514;2024-02-23T03:15:12;6.10;91.20
55988;DHT22;75964;50.930;4.514;2024-02-23T03:17:38;6.10;91.50
55988;DHT22;75964;50.930;4.514;2024-02-23T03:20:04;6.10;91.40
55988;DHT22;75964;50.930;4.514;2024-02-23T03:22:37;6.00;91.40
55988;DHT22;75964;50.930;4.514;2024-02-23T03:25:04;6.10;90.90
55988;DHT22;75964;50.930;4.514;2024-02-23T03:27:34;6.20;90.90
55988;DHT22;75964;50.930;4.514;2024-02-23T03:30:00;6.10;90.80
55988;DHT22;75964;50.930;4.514;2024-02-23T03:32:26;6.10;91.00
55988;DHT22;75964;50.930;4.514;2024-02-23T03:34:51;6.10;91.10
55988;DHT22;75964;50.930;4.514;2024-02-23T03:37:17;6.10;90.90
55988;DHT22;75964;50.930;4.514;2024-02-23T03:39:43;6.20;90.90
55988;DHT22;75964;50.930;4.514;2024-02-23T03:42:08;6.20;90.70
55988;DHT22;75964;50.930;4.514;2024-02-23T03:44:34;6.20;90.80
55988;DHT22;75964;50.930;4.514;2024-02-23T03:46:59;6.20;90.60
55988;DHT22;75964;50.930;4.514;2024-02-23T03:49:25;6.10;90.90
55988;DHT22;75964;50.930;4.514;2024-02-23T03:51:51;6.10;91.00
55988;DHT22;75964;50.930;4.514;2024-02-23T03:54:16;6.10;90.90
55988;DHT22;75964;50.930;4.514;2024-02-23T03:56:42;6.00;91.00
55988;DHT22;75964;50.930;4.514;2024-02-23T03:59:08;6.10;91.00
55988;DHT22;75964;50.930;4.514;2024-02-23T04:01:38;6.20;90.80
55988;DHT22;75964;50.930;4.514;2024-02-23T04:04:05;6.30;90.60
55988;DHT22;75964;50.930;4.514;2024-02-23T04:06:31;6.40;90.50
55988;DHT22;75964;50.930;4.514;2024-02-23T04:08:56;6.40;90.40
55988;DHT22;75964;50.930;4.514;2024-02-23T04:11:22;6.40;90.60
55988;DHT22;75964;50.930;4.514;2024-02-23T04:13:48;6.40;90.70
55988;DHT22;75964;50.930;4.514;2024-02-23T04:16:13;6.40;90.70
55988;DHT22;75964;50.930;4.514;2024-02-23T04:18:39;6.40;90.40
55988;DHT22;75964;50.930;4.514;2024-02-23T04:21:05;6.40;90.50
55988;DHT22;75964;50.930;4.514;2024-02-23T04:23:30;6.50;90.70
55988;DHT22;75964;50.930;4.514;2024-02-23T04:25:56;6.40;90.60
55988;DHT22;75964;50.930;4.514;2024-02-23T04:28:22;6.40;90.60
55988;DHT22;75964;50.930;4.514;2024-02-23T04:30:48;6.40;90.50
55988;DHT22;75964;50.930;4.514;2024-02-23T04:33:17;6.40;90.50
55988;DHT22;75964;50.930;4.514;2024-02-23T04:35:43;6.40;90.50
55988;DHT22;75964;50.930;4.514;2024-02-23T04:38:08;6.50;90.40
55988;DHT22;75964;50.930;4.514;2024-02-23T04:40:34;6.50;90.20
55988;DHT22;75964;50.930;4.514;2024-02-23T04:42:59;6.50;90.30
55988;DHT22;75964;50.930;4.514;2024-02-23T04:45:25;6.50;90.30
55988;DHT22;75964;50.930;4.514;2024-02-23T04:47:51;6.40;90.20
55988;DHT22;75964;50.930;4.514;2024-02-23T04:50:16;6.30;90.50
55988;DHT22;75964;50.930;4.514;2024-02-23T04:52:42;6.40;90.30
55988;DHT22;75964;50.930;4.514;2024-02-23T04:55:08;6.40;90.20
55988;DHT22;75964;50.930;4.514;2024-02-23T04:57:33;6.20;90.10
55988;DHT22;75964;50.930;4.514;2024-02-23T04:59:59;6.20;90.40
55988;DHT22;75964;50.930;4.514;2024-02-23T05:02:25;6.30;90.40
55988;DHT22;75964;50.930;4.514;2024-02-23T05:04:54;6.30;90.10
55988;DHT22;75964;50.930;4.514;2024-02-23T05:07:19;6.30;90.00
55988;DHT22;75964;50.930;4.514;2024-02-23T05:09:45;6.30;89.70
55988;DHT22;75964;50.930;4.514;2024-02-23T05:12:10;6.30;89.70
55988;DHT22;75964;50.930;4.514;2024-02-23T05:14:36;6.30;90.00
55988;DHT22;75964;50.930;4.514;2024-02-23T05:17:02;6.40;90.10
55988;DHT22;75964;50.930;4.514;2024-02-23T05:19:28;6.30;89.80
55988;DHT22;75964;50.930;4.514;2024-02-23T05:21:54;6.30;90.00
55988;DHT22;75964;50.930;4.514;2024-02-23T05:24:20;6.30;90.10
55988;DHT22;75964;50.930;4.514;2024-02-23T05:26:45;6.40;89.70
55988;DHT22;75964;50.930;4.514;2024-02-23T05:29:11;6.40;89.60
55988;DHT22;75964;50.930;4.514;2024-02-23T05:31:49;6.40;89.50
55988;DHT22;75964;50.930;4.514;2024-02-23T05:34:15;6.30;89.50
55988;DHT22;75964;50.930;4.514;2024-02-23T05:36:41;6.40;89.50
55988;DHT22;75964;50.930;4.514;2024-02-23T05:39:07;6.40;90.00
55988;DHT22;75964;50.930;4.514;2024-02-23T05:41:37;6.30;89.40
55988;DHT22;75964;50.930;4.514;2024-02-23T05:44:06;6.40;89.20
55988;DHT22;75964;50.930;4.514;2024-02-23T05:46:32;6.30;89.20
55988;DHT22;75964;50.930;4.514;2024-02-23T05:48:58;6.40;89.80
55988;DHT22;75964;50.930;4.514;2024-02-23T05:51:24;6.40;89.60
55988;DHT22;75964;50.930;4.514;2024-02-23T05:53:49;6.50;89.40
55988;DHT22;75964;50.930;4.514;2024-02-23T05:56:15;6.50;88.90
55988;DHT22;75964;50.930;4.514;2024-02-23T05:58:41;6.40;89.10
55988;DHT22;75964;50.930;4.514;2024-02-23T06:01:06;6.40;89.40
55988;DHT22;75964;50.930;4.514;2024-02-23T06:03:32;6.50;88.70
55988;DHT22;75964;50.930;4.514;2024-02-23T06:05:58;6.50;88.10
55988;DHT22;75964;50.930;4.514;2024-02-23T06:08:24;6.40;88.00
55988;DHT22;75964;50.930;4.514;2024-02-23T06:11:00;6.50;88.40
55988;DHT22;75964;50.930;4.514;2024-02-23T06:13:26;6.50;88.30
55988;DHT22;75964;50.930;4.514;2024-02-23T06:15:52;6.50;88.00
55988;DHT22;75964;50.930;4.514;2024-02-23T06:18:17;6.60;87.20
55988;DHT22;75964;50.930;4.514;2024-02-23T06:20:43;6.50;87.60
55988;DHT22;75964;50.930;4.514;2024-02-23T06:23:09;6.50;87.90
55988;DHT22;75964;50.930;4.514;2024-02-23T06:25:34;6.60;87.60
55988;DHT22;75964;50.930;4.514;2024-02-23T06:28:00;6.60;87.50
55988;DHT22;75964;50.930;4.514;2024-02-23T06:30:26;6.40;88.30
55988;DHT22;75964;50.930;4.514;2024-02-23T06:32:52;6.40;88.00
55988;DHT22;75964;50.930;4.514;2024-02-23T06:35:17;6.40;88.00
55988;DHT22;75964;50.930;4.514;2024-02-23T06:37:43;6.40;88.40
55988;DHT22;75964;50.930;4.514;2024-02-23T06:40:09;6.40;88.30
55988;DHT22;75964;50.930;4.514;2024-02-23T06:42:35;6.40;88.40
55988;DHT22;75964;50.930;4.514;2024-02-23T06:45:01;6.50;88.10
55988;DHT22;75964;50.930;4.514;2024-02-23T06:47:26;6.40;88.70
55988;DHT22;75964;50.930;4.514;2024-02-23T06:49:52;6.40;88.70
55988;DHT22;75964;50.930;4.514;2024-02-23T06:52:18;6.40;88.60
55988;DHT22;75964;50.930;4.514;2024-02-23T06:54:43;6.50;88.60
55988;DHT22;75964;50.930;4.514;2024-02-23T06:57:09;6.50;88.00
55988;DHT22;75964;50.930;4.514;2024-02-23T06:59:35;6.50;88.30
55988;DHT22;75964;50.930;4.514;2024-02-23T07:02:01;6.50;88.00
55988;DHT22;75964;50.930;4.514;2024-02-23T07:04:27;6.50;88.20
55988;DHT22;75964;50.930;4.514;2024-02-23T07:06:54;6.60;88.80
55988;DHT22;75964;50.930;4.514;2024-02-23T07:09:20;6.60;88.20
55988;DHT22;75964;50.930;4.514;2024-02-23T07:11:52;6.60;87.90
55988;DHT22;75964;50.930;4.514;2024-02-23T07:14:18;6.60;88.40
55988;DHT22;75964;50.930;4.514;2024-02-23T07:16:45;6.60;88.10
55988;DHT22;75964;50.930;4.514;2024-02-23T07:19:11;6.60;88.20
55988;DHT22;75964;50.930;4.514;2024-02-23T07:21:38;6.60;88.30
55988;DHT22;75964;50.930;4.514;2024-02-23T07:24:03;6.70;88.50
55988;DHT22;75964;50.930;4.514;2024-02-23T07:26:29;6.80;88.90
55988;DHT22;75964;50.930;4.514;2024-02-23T07:28:55;6.80;88.20
55988;DHT22;75964;50.930;4.514;2024-02-23T07:31:21;6.70;88.10
55988;DHT22;75964;50.930;4.514;2024-02-23T07:33:46;6.60;88.80
55988;DHT22;75964;50.930;4.514;2024-02-23T07:36:16;6.70;87.90
55988;DHT22;75964;50.930;4.514;2024-02-23T07:38:42;6.70;88.20
55988;DHT22;75964;50.930;4.514;2024-02-23T07:41:09;6.80;88.20
55988;DHT22;75964;50.930;4.514;2024-02-23T07:43:35;6.80;87.90
55988;DHT22;75964;50.930;4.514;2024-02-23T07:46:01;6.80;88.10
55988;DHT22;75964;50.930;4.514;2024-02-23T07:48:28;6.80;87.70
55988;DHT22;75964;50.930;4.514;2024-02-23T07:50:53;6.90;87.50
55988;DHT22;75964;50.930;4.514;2024-02-23T07:53:19;7.00;87.10
55988;DHT22;75964;50.930;4.514;2024-02-23T07:55:44;7.00;87.40
55988;DHT22;75964;50.930;4.514;2024-02-23T07:58:10;7.00;86.60
55988;DHT22;75964;50.930;4.514;2024-02-23T08:00:36;7.10;87.30
55988;DHT22;75964;50.930;4.514;2024-02-23T08:03:04;7.20;88.00
55988;DHT22;75964;50.930;4.514;2024-02-23T08:05:29;7.30;86.60
55988;DHT22;75964;50.930;4.514;2024-02-23T08:07:55;7.30;86.70
55988;DHT22;75964;50.930;4.514;2024-02-23T08:10:21;7.30;86.60
55988;DHT22;75964;50.930;4.514;2024-02-23T08:12:47;7.20;87.00
55988;DHT22;75964;50.930;4.514;2024-02-23T08:15:12;7.20;87.10
55988;DHT22;75964;50.930;4.514;2024-02-23T08:17:38;7.20;87.40
55988;DHT22;75964;50.930;4.514;2024-02-23T08:20:04;7.30;87.00
55988;DHT22;75964;50.930;4.514;2024-02-23T08:22:30;7.20;87.30
55988;DHT22;75964;50.930;4.514;2024-02-23T08:24:56;7.30;87.70
55988;DHT22;75964;50.930;4.514;2024-02-23T08:27:22;7.20;89.00
55988;DHT22;75964;50.930;4.514;2024-02-23T08:29:48;7.10;89.60
55988;DHT22;75964;50.930;4.514;2024-02-23T08:32:13;7.00;90.00
55988;DHT22;75964;50.930;4.514;2024-02-23T08:34:39;7.00;90.50
55988;DHT22;75964;50.930;4.514;2024-02-23T08:37:05;6.90;90.80
55988;DHT22;75964;50.930;4.514;2024-02-23T08:39:31;6.90;90.90
55988;DHT22;75964;50.930;4.514;2024-02-23T08:41:57;6.90;91.20
55988;DHT22;75964;50.930;4.514;2024-02-23T08:44:23;6.70;91.40
55988;DHT22;75964;50.930;4.514;2024-02-23T08:46:48;6.70;91.50
55988;DHT22;75964;50.930;4.514;2024-02-23T08:49:14;6.70;91.60
55988;DHT22;75964;50.930;4.514;2024-02-23T08:51:40;6.50;92.30
55988;DHT22;75964;50.930;4.514;2024-02-23T08:54:06;6.40;92.80
55988;DHT22;75964;50.930;4.514;2024-02-23T08:56:40;6.50;92.90
55988;DHT22;75964;50.930;4.514;2024-02-23T08:59:08;6.50;93.50
55988;DHT22;75964;50.930;4.514;2024-02-23T09:01:34;6.60;93.70
55988;DHT22;75964;50.930;4.514;2024-02-23T09:04:00;6.50;93.10
55988;DHT22;75964;50.930;4.514;2024-02-23T09:06:26;6.60;93.50
55988;DHT22;75964;50.930;4.514;2024-02-23T09:08:52;6.50;93.50
55988;DHT22;75964;50.930;4.514;2024-02-23T09:11:18;6.60;93.60
55988;DHT22;75964;50.930;4.514;2024-02-23T09:13:43;6.60;93.30
55988;DHT22;75964;50.930;4.514;2024-02-23T09:16:09;6.60;93.70
55988;DHT22;75964;50.930;4.514;2024-02-23T09:18:35;6.60;93.50
55988;DHT22;75964;50.930;4.514;2024-02-23T09:21:01;6.50;93.30
55988;DHT22;75964;50.930;4.514;2024-02-23T09:23:26;6.60;93.90
55988;DHT22;75964;50.930;4.514;2024-02-23T09:25:52;6.70;93.60
55988;DHT22;75964;50.930;4.514;2024-02-23T09:28:18;6.60;93.80
55988;DHT22;75964;50.930;4.514;2024-02-23T09:30:43;6.60;94.30
55988;DHT22;75964;50.930;4.514;2024-02-23T09:33:09;6.60;93.90
55988;DHT22;75964;50.930;4.514;2024-02-23T09:35:35;6.70;93.10
55988;DHT22;75964;50.930;4.514;2024-02-23T09:38:00;6.80;93.20
55988;DHT22;75964;50.930;4.514;2024-02-23T09:40:26;6.90;93.40
55988;DHT22;75964;50.930;4.514;2024-02-23T09:42:56;7.10;93.10
55988;DHT22;75964;50.930;4.514;2024-02-23T09:45:26;7.20;92.50
55988;DHT22;75964;50.930;4.514;2024-02-23T09:47:56;7.20;92.00
55988;DHT22;75964;50.930;4.514;2024-02-23T09:50:24;7.30;92.10
55988;DHT22;75964;50.930;4.514;2024-02-23T09:52:51;7.50;91.90
55988;DHT22;75964;50.930;4.514;2024-02-23T09:55:17;7.50;91.80
55988;DHT22;75964;50.930;4.514;2024-02-23T09:57:45;7.60;91.60
55988;DHT22;75964;50.930;4.514;2024-02-23T10:00:13;7.60;91.40
55988;DHT22;75964;50.930;4.514;2024-02-23T10:02:41;7.60;91.40
55988;DHT22;75964;50.930;4.514;2024-02-23T10:05:08;7.70;91.10
55988;DHT22;75964;50.930;4.514;2024-02-23T10:07:35;7.90;91.40
55988;DHT22;75964;50.930;4.514;2024-02-23T10:10:01;7.90;91.10
55988;DHT22;75964;50.930;4.514;2024-02-23T10:12:27;8.00;91.00
55988;DHT22;75964;50.930;4.514;2024-02-23T10:14:53;8.00;91.00
55988;DHT22;75964;50.930;4.514;2024-02-23T10:17:20;8.00;91.00
55988;DHT22;75964;50.930;4.514;2024-02-23T10:19:46;7.90;90.90
55988;DHT22;75964;50.930;4.514;2024-02-23T10:22:11;8.00;90.70
55988;DHT22;75964;50.930;4.514;2024-02-23T10:24:37;8.00;90.60
55988;DHT22;75964;50.930;4.514;2024-02-23T10:27:03;8.00;90.70
55988;DHT22;75964;50.930;4.514;2024-02-23T10:29:29;8.00;90.10
55988;DHT22;75964;50.930;4.514;2024-02-23T10:31:57;8.00;90.20
55988;DHT22;75964;50.930;4.514;2024-02-23T10:34:24;8.10;90.20
55988;DHT22;75964;50.930;4.514;2024-02-23T10:36:50;8.20;90.20
55988;DHT22;75964;50.930;4.514;2024-02-23T10:39:18;8.30;90.70
55988;DHT22;75964;50.930;4.514;2024-02-23T10:42:00;8.40;89.80
55988;DHT22;75964;50.930;4.514;2024-02-23T10:44:28;8.40;89.20
55988;DHT22;75964;50.930;4.514;2024-02-23T10:46:55;8.50;88.30
55988;DHT22;75964;50.930;4.514;2024-02-23T10:49:23;8.70;90.00
55988;DHT22;75964;50.930;4.514;2024-02-23T10:51:51;8.80;88.00
55988;DHT22;75964;50.930;4.514;2024-02-23T10:54:21;8.70;87.90
55988;DHT22;75964;50.930;4.514;2024-02-23T10:56:49;8.70;87.30
55988;DHT22;75964;50.930;4.514;2024-02-23T10:59:16;8.70;88.10
55988;DHT22;75964;50.930;4.514;2024-02-23T11:01:51;8.80;88.10
55988;DHT22;75964;50.930;4.514;2024-02-23T11:04:20;8.80;86.40
55988;DHT22;75964;50.930;4.514;2024-02-23T11:06:53;8.60;86.40
55988;DHT22;75964;50.930;4.514;2024-02-23T11:09:24;8.60;87.70
55988;DHT22;75964;50.930;4.514;2024-02-23T11:11:57;8.60;87.10
55988;DHT22;75964;50.930;4.514;2024-02-23T11:14:35;8.60;88.10
55988;DHT22;75964;50.930;4.514;2024-02-23T11:17:01;8.60;87.00
55988;DHT22;75964;50.930;4.514;2024-02-23T11:19:35;8.50;87.00
55988;DHT22;75964;50.930;4.514;2024-02-23T11:22:01;8.60;87.20
55988;DHT22;75964;50.930;4.514;2024-02-23T11:24:30;8.50;86.80
55988;DHT22;75964;50.930;4.514;2024-02-23T11:26:57;8.60;87.00
55988;DHT22;75964;50.930;4.514;2024-02-23T11:29:26;8.70;86.40
55988;DHT22;75964;50.930;4.514;2024-02-23T11:31:53;8.80;86.60
55988;DHT22;75964;50.930;4.514;2024-02-23T11:34:26;8.70;86.60
55988;DHT22;75964;50.930;4.514;2024-02-23T11:36:52;8.60;86.60
55988;DHT22;75964;50.930;4.514;2024-02-23T11:39:19;8.70;86.90
55988;DHT22;75964;50.930;4.514;2024-02-23T11:41:48;8.70;86.60
55988;DHT22;75964;50.930;4.514;2024-02-23T11:44:15;8.80;86.60
55988;DHT22;75964;50.930;4.514;2024-02-23T11:46:43;8.80;86.40
55988;DHT22;75964;50.930;4.514;2024-02-23T11:49:09;8.80;86.90
55988;DHT22;75964;50.930;4.514;2024-02-23T11:51:35;8.70;86.80
55988;DHT22;75964;50.930;4.514;2024-02-23T11:54:01;8.60;85.60
55988;DHT22;75964;50.930;4.514;2024-02-23T11:56:27;8.60;86.60
55988;DHT22;75964;50.930;4.514;2024-02-23T11:58:54;8.50;86.60
55988;DHT22;75964;50.930;4.514;2024-02-23T12:01:20;8.50;87.00
55988;DHT22;75964;50.930;4.514;2024-02-23T12:03:46;8.60;87.80
55988;DHT22;75964;50.930;4.514;2024-02-23T12:06:14;8.80;86.30
55988;DHT22;75964;50.930;4.514;2024-02-23T12:08:41;8.90;86.60
55988;DHT22;75964;50.930;4.514;2024-02-23T12:11:08;8.90;86.00
55988;DHT22;75964;50.930;4.514;2024-02-23T12:13:38;8.90;85.90
55988;DHT22;75964;50.930;4.514;2024-02-23T12:16:04;8.70;85.00
55988;DHT22;75964;50.930;4.514;2024-02-23T12:18:34;8.70;85.80
55988;DHT22;75964;50.930;4.514;2024-02-23T12:21:05;8.60;85.40
55988;DHT22;75964;50.930;4.514;2024-02-23T12:23:42;8.70;85.60
55988;DHT22;75964;50.930;4.514;2024-02-23T12:26:08;8.80;85.50
55988;DHT22;75964;50.930;4.514;2024-02-23T12:28:34;8.80;85.50
55988;DHT22;75964;50.930;4.514;2024-02-23T12:31:01;8.90;85.10
55988;DHT22;75964;50.930;4.514;2024-02-23T12:33:34;9.10;84.50
55988;DHT22;75964;50.930;4.514;2024-02-23T12:36:02;9.00;84.10
55988;DHT22;75964;50.930;4.514;2024-02-23T12:38:28;9.10;84.40
55988;DHT22;75964;50.930;4.514;2024-02-23T12:40:54;9.50;83.00
55988;DHT22;75964;50.930;4.514;2024-02-23T12:43:20;9.60;82.30
55988;DHT22;75964;50.930;4.514;2024-02-23T12:45:55;9.50;81.70
55988;DHT22;75964;50.930;4.514;2024-02-23T12:48:21;9.60;82.20
55988;DHT22;75964;50.930;4.514;2024-02-23T12:50:48;9.70;81.40
55988;DHT22;75964;50.930;4.514;2024-02-23T12:53:37;9.70;80.80
55988;DHT22;75964;50.930;4.514;2024-02-23T12:56:04;9.80;82.00
55988;DHT22;75964;50.930;4.514;2024-02-23T12:58:31;9.70;80.60
55988;DHT22;75964;50.930;4.514;2024-02-23T13:00:57;9.60;81.80
55988;DHT22;75964;50.930;4.514;2024-02-23T13:03:24;9.60;81.40
55988;DHT22;75964;50.930;4.514;2024-02-23T13:05:51;9.40;81.10
55988;DHT22;75964;50.930;4.514;2024-02-23T13:08:16;9.60;82.30
55988;DHT22;75964;50.930;4.514;2024-02-23T13:10:43;9.50;80.40
55988;DHT22;75964;50.930;4.514;2024-02-23T13:13:09;9.40;80.50
55988;DHT22;75964;50.930;4.514;2024-02-23T13:15:35;9.30;81.60
55988;DHT22;75964;50.930;4.514;2024-02-23T13:18:03;9.20;81.60
55988;DHT22;75964;50.930;4.514;2024-02-23T13:20:29;9.40;83.20
55988;DHT22;75964;50.930;4.514;2024-02-23T13:22:55;9.50;81.50
55988;DHT22;75964;50.930;4.514;2024-02-23T13:25:21;9.50;80.90
55988;DHT22;75964;50.930;4.514;2024-02-23T13:27:47;9.50;80.90
55988;DHT22;75964;50.930;4.514;2024-02-23T13:30:13;9.40;80.20
55988;DHT22;75964;50.930;4.514;2024-02-23T13:32:39;9.50;81.50
55988;DHT22;75964;50.930;4.514;2024-02-23T13:35:04;9.60;80.30
55988;DHT22;75964;50.930;4.514;2024-02-23T13:37:31;9.60;80.80
55988;DHT22;75964;50.930;4.514;2024-02-23T13:39:57;9.60;79.30
55988;DHT22;75964;50.930;4.514;2024-02-23T13:42:23;9.50;79.80
55988;DHT22;75964;50.930;4.514;2024-02-23T13:44:49;9.40;80.80
55988;DHT22;75964;50.930;4.514;2024-02-23T13:47:14;9.50;81.20
55988;DHT22;75964;50.930;4.514;2024-02-23T13:49:40;9.50;79.80
55988;DHT22;75964;50.930;4.514;2024-02-23T13:52:06;9.60;79.70
55988;DHT22;75964;50.930;4.514;2024-02-23T13:54:31;9.60;78.60
55988;DHT22;75964;50.930;4.514;2024-02-23T13:56:57;9.70;78.50
55988;DHT22;75964;50.930;4.514;2024-02-23T13:59:23;9.80;79.30
55988;DHT22;75964;50.930;4.514;2024-02-23T14:01:48;9.80;77.70
55988;DHT22;75964;50.930;4.514;2024-02-23T14:04:14;9.60;78.30
55988;DHT22;75964;50.930;4.514;2024-02-23T14:06:40;9.60;78.50
55988;DHT22;75964;50.930;4.514;2024-02-23T14:09:05;9.60;78.20
55988;DHT22;75964;50.930;4.514;2024-02-23T14:11:31;9.60;78.50
55988;DHT22;75964;50.930;4.514;2024-02-23T14:13:57;9.70;79.00
55988;DHT22;75964;50.930;4.514;2024-02-23T14:16:23;9.60;78.50
55988;DHT22;75964;50.930;4.514;2024-02-23T14:18:49;9.50;78.40
55988;DHT22;75964;50.930;4.514;2024-02-23T14:21:15;9.50;79.70
55988;DHT22;75964;50.930;4.514;2024-02-23T14:23:42;9.70;79.70
55988;DHT22;75964;50.930;4.514;2024-02-23T14:26:08;9.80;77.40
55988;DHT22;75964;50.930;4.514;2024-02-23T14:28:34;9.80;77.70
55988;DHT22;75964;50.930;4.514;2024-02-23T14:30:59;9.80;75.90
55988;DHT22;75964;50.930;4.514;2024-02-23T14:33:25;9.60;76.00
55988;DHT22;75964;50.930;4.514;2024-02-23T14:35:51;9.70;76.30
55988;DHT22;75964;50.930;4.514;2024-02-23T14:38:17;9.70;76.60
55988;DHT22;75964;50.930;4.514;2024-02-23T14:40:43;9.60;76.80
55988;DHT22;75964;50.930;4.514;2024-02-23T14:43:09;9.40;77.50
55988;DHT22;75964;50.930;4.514;2024-02-23T14:45:35;9.40;77.50
55988;DHT22;75964;50.930;4.514;2024-02-23T14:48:01;9.40;78.20
55988;DHT22;75964;50.930;4.514;2024-02-23T14:50:28;9.40;77.40
55988;DHT22;75964;50.930;4.514;2024-02-23T14:52:54;9.50;76.30
55988;DHT22;75964;50.930;4.514;2024-02-23T14:55:20;9.50;76.20
55988;DHT22;75964;50.930;4.514;2024-02-23T14:57:45;9.60;76.40
55988;DHT22;75964;50.930;4.514;2024-02-23T15:00:11;9.70;75.10
55988;DHT22;75964;50.930;4.514;2024-02-23T15:02:38;9.60;76.60
55988;DHT22;75964;50.930;4.514;2024-02-23T15:05:05;9.60;76.50
55988;DHT22;75964;50.930;4.514;2024-02-23T15:07:32;9.60;75.70
55988;DHT22;75964;50.930;4.514;2024-02-23T15:09:58;9.60;75.60
55988;DHT22;75964;50.930;4.514;2024-02-23T15:12:24;9.60;76.40
55988;DHT22;75964;50.930;4.514;2024-02-23T15:14:53;9.60;75.30
55988;DHT22;75964;50.930;4.514;2024-02-23T15:17:19;9.50;75.00
55988;DHT22;75964;50.930;4.514;2024-02-23T15:19:45;9.50;75.00
55988;DHT22;75964;50.930;4.514;2024-02-23T15:22:11;9.50;75.20
55988;DHT22;75964;50.930;4.514;2024-02-23T15:24:40;9.60;75.20
55988;DHT22;75964;50.930;4.514;2024-02-23T15:27:11;9.50;75.80
55988;DHT22;75964;50.930;4.514;2024-02-23T15:29:37;9.50;77.50
55988;DHT22;75964;50.930;4.514;2024-02-23T15:32:02;9.60;76.90
55988;DHT22;75964;50.930;4.514;2024-02-23T15:34:28;9.60;76.00
55988;DHT22;75964;50.930;4.514;2024-02-23T15:36:54;9.50;75.40
55988;DHT22;75964;50.930;4.514;2024-02-23T15:39:20;9.50;75.50